createdAt,value
2023-01-06T00:01:35.221Z,10.96
2023-01-06T00:04:03.313Z,11.01
2023-01-06T00:06:31.787Z,10.96
2023-01-06T00:09:02.091Z,10.92
2023-01-06T00:11:32.153Z,10.98
2023-01-06T00:14:00.504Z,11.03
2023-01-06T00:16:28.144Z,11.03
2023-01-06T00:18:57.272Z,11.06
2023-01-06T00:21:25.312Z,11.08
2023-01-06T00:23:53.243Z,11.00
2023-01-06T00:26:20.945Z,11.02
2023-01-06T00:28:53.837Z,11.05
2023-01-06T00:31:21.515Z,11.12
2023-01-06T00:33:49.158Z,11.06
2023-01-06T00:36:16.878Z,11.02
2023-01-06T00:38:44.777Z,11.02
2023-01-06T00:41:28.243Z,10.99
2023-01-06T00:43:58.168Z,11.18
2023-01-06T00:46:28.796Z,11.12
2023-01-06T00:49:04.900Z,11.13
2023-01-06T00:51:33.612Z,10.97
2023-01-06T00:54:02.177Z,10.99
2023-01-06T00:56:29.758Z,11.09
2023-01-06T00:59:03.237Z,11.03
2023-01-06T01:01:30.961Z,10.99
2023-01-06T01:03:58.615Z,11.01
2023-01-06T01:06:26.710Z,11.02
2023-01-06T01:08:55.480Z,11.02
2023-01-06T01:11:41.066Z,11.13
2023-01-06T01:14:11.058Z,10.97
2023-01-06T01:16:38.907Z,10.95
2023-01-06T01:19:06.712Z,11.02
2023-01-06T01:21:34.935Z,11.02
2023-01-06T01:24:02.584Z,11.07
2023-01-06T01:26:30.250Z,10.98
2023-01-06T01:28:58.008Z,10.96
2023-01-06T01:31:28.039Z,10.87
2023-01-06T01:33:55.706Z,10.85
2023-01-06T01:36:23.241Z,10.83
2023-01-06T01:38:50.819Z,10.91
2023-01-06T01:41:22.743Z,10.94
2023-01-06T01:43:52.471Z,11.08
2023-01-06T01:46:26.934Z,11.09
2023-01-06T01:48:59.046Z,11.06
2023-01-06T01:51:31.970Z,11.06
2023-01-06T01:54:05.889Z,11.13
2023-01-06T01:56:38.659Z,11.05
2023-01-06T01:59:11.804Z,11.09
2023-01-06T02:01:40.017Z,11.12
2023-01-06T02:04:10.285Z,11.05
2023-01-06T02:06:38.903Z,11.07
2023-01-06T02:09:12.024Z,11.18
2023-01-06T02:11:41.626Z,11.26
2023-01-06T02:14:12.230Z,11.20
2023-01-06T02:16:49.350Z,11.13
2023-01-06T02:19:39.651Z,11.19
2023-01-06T02:22:26.696Z,11.16
2023-01-06T02:25:22.311Z,11.18
2023-01-06T02:28:13.868Z,11.20
2023-01-06T02:30:56.619Z,11.16
2023-01-06T02:33:31.338Z,11.19
2023-01-06T02:36:13.357Z,11.15
2023-01-06T02:38:55.436Z,11.20
2023-01-06T02:41:33.331Z,11.14
2023-01-06T02:44:04.780Z,11.10
2023-01-06T02:46:55.448Z,11.14
2023-01-06T02:49:30.612Z,11.15
2023-01-06T02:52:02.392Z,11.18
2023-01-06T02:54:39.217Z,11.26
2023-01-06T02:57:14.926Z,11.18
2023-01-06T02:59:49.420Z,11.22
2023-01-06T03:02:19.099Z,11.19
2023-01-06T03:04:51.719Z,11.20
2023-01-06T03:07:22.415Z,11.20
2023-01-06T03:09:54.176Z,11.19
2023-01-06T03:12:29.099Z,11.24
2023-01-06T03:14:57.398Z,11.23
2023-01-06T03:17:25.668Z,11.18
2023-01-06T03:19:55.223Z,11.24
2023-01-06T03:22:24.252Z,11.13
2023-01-06T03:24:52.956Z,11.20
2023-01-06T03:27:25.744Z,11.25
2023-01-06T03:29:53.716Z,11.22
2023-01-06T03:32:27.240Z,11.21
2023-01-06T03:35:08.808Z,11.25
2023-01-06T03:37:48.966Z,11.28
2023-01-06T03:40:26.616Z,11.28
2023-01-06T03:43:13.554Z,11.27
2023-01-06T03:45:56.328Z,11.20
2023-01-06T03:48:34.338Z,11.25
2023-01-06T03:51:08.876Z,11.14
2023-01-06T03:53:43.668Z,11.18
2023-01-06T03:56:19.909Z,11.18
2023-01-06T03:58:52.123Z,11.16
2023-01-06T04:01:20.629Z,11.10
2023-01-06T04:03:49.407Z,11.12
2023-01-06T04:06:18.289Z,11.06
2023-01-06T04:08:46.086Z,11.05
2023-01-06T04:11:34.272Z,10.98
2023-01-06T04:14:01.077Z,10.97
2023-01-06T04:16:28.753Z,10.95
2023-01-06T04:18:56.365Z,10.93
2023-01-06T04:21:25.269Z,10.83
2023-01-06T04:23:52.847Z,10.86
2023-01-06T04:26:20.514Z,10.80
2023-01-06T04:28:48.172Z,10.87
2023-01-06T04:31:15.703Z,10.88
2023-01-06T04:33:43.246Z,10.84
2023-01-06T04:36:10.887Z,10.81
2023-01-06T04:38:39.754Z,10.79
2023-01-06T04:41:08.043Z,10.80
2023-01-06T04:43:35.808Z,10.91
2023-01-06T04:46:03.404Z,10.88
2023-01-06T04:48:31.427Z,10.87
2023-01-06T04:51:02.796Z,10.93
2023-01-06T04:53:30.392Z,10.90
2023-01-06T04:56:03.443Z,10.93
2023-01-06T04:58:31.008Z,11.00
2023-01-06T05:01:01.091Z,11.04
2023-01-06T05:03:28.998Z,10.97
2023-01-06T05:05:56.659Z,10.96
2023-01-06T05:08:24.211Z,10.99
2023-01-06T05:10:51.779Z,10.96
2023-01-06T05:13:20.716Z,10.97
2023-01-06T05:15:48.247Z,11.02
2023-01-06T05:18:15.730Z,11.02
2023-01-06T05:20:43.272Z,10.96
2023-01-06T05:23:13.567Z,10.98
2023-01-06T05:25:42.262Z,10.96
2023-01-06T05:28:10.023Z,11.01
2023-01-06T05:30:39.119Z,10.90
2023-01-06T05:33:07.394Z,10.91
2023-01-06T05:35:35.032Z,10.86
2023-01-06T05:38:02.571Z,10.97
2023-01-06T05:40:30.771Z,10.98
2023-01-06T05:42:58.831Z,10.95
2023-01-06T05:45:26.602Z,11.00
2023-01-06T05:47:55.491Z,11.05
2023-01-06T05:50:23.101Z,10.94
2023-01-06T05:52:50.654Z,11.01
2023-01-06T05:55:18.465Z,11.05
2023-01-06T05:57:46.080Z,11.02
2023-01-06T06:00:14.421Z,10.96
2023-01-06T06:02:42.382Z,10.94
2023-01-06T06:05:11.668Z,10.94
2023-01-06T06:07:39.500Z,10.97
2023-01-06T06:10:08.607Z,11.01
2023-01-06T06:12:36.557Z,11.07
2023-01-06T06:15:04.618Z,11.03
2023-01-06T06:17:32.543Z,10.98
2023-01-06T06:20:00.284Z,10.96
2023-01-06T06:22:29.164Z,11.00
2023-01-06T06:24:56.706Z,11.00
2023-01-06T06:27:24.329Z,11.06
2023-01-06T06:29:52.007Z,10.86
2023-01-06T06:32:20.961Z,10.88
2023-01-06T06:34:48.573Z,10.85
2023-01-06T06:37:16.227Z,10.84
2023-01-06T06:39:46.222Z,10.77
2023-01-06T06:42:13.850Z,10.80
2023-01-06T06:44:41.448Z,10.79
2023-01-06T06:47:09.074Z,10.75
2023-01-06T06:49:36.745Z,10.80
2023-01-06T06:52:04.477Z,10.81
2023-01-06T06:54:32.067Z,10.71
2023-01-06T06:57:00.954Z,10.83
2023-01-06T06:59:28.544Z,10.81
2023-01-06T07:01:56.302Z,10.88
2023-01-06T07:04:23.980Z,10.90
2023-01-06T07:06:51.601Z,10.91
2023-01-06T07:09:19.381Z,10.81
2023-01-06T07:11:46.980Z,10.92
2023-01-06T07:14:15.888Z,10.81
2023-01-06T07:16:43.626Z,10.76
2023-01-06T07:19:11.261Z,10.81
2023-01-06T07:21:39.357Z,10.86
2023-01-06T07:24:07.306Z,10.87
2023-01-06T07:26:34.961Z,10.77
2023-01-06T07:29:02.669Z,10.65
2023-01-06T07:31:31.770Z,10.62
2023-01-06T07:33:59.405Z,10.81
2023-01-06T07:36:26.963Z,10.72
2023-01-06T07:38:56.646Z,10.71
2023-01-06T07:41:24.238Z,10.66
2023-01-06T07:43:51.793Z,10.72
2023-01-06T07:46:19.484Z,10.76
2023-01-06T07:48:48.698Z,10.87
2023-01-06T07:51:18.992Z,10.82
2023-01-06T07:53:46.704Z,10.85
2023-01-06T07:56:14.468Z,10.83
2023-01-06T07:58:42.065Z,10.92
2023-01-06T08:01:10.593Z,11.05
2023-01-06T08:03:38.195Z,11.08
2023-01-06T08:06:12.042Z,11.21
2023-01-06T08:08:40.654Z,11.19
2023-01-06T08:11:09.611Z,11.09
2023-01-06T08:13:38.433Z,11.06
2023-01-06T08:16:07.472Z,11.02
2023-01-06T08:18:35.188Z,11.22
2023-01-06T08:21:03.190Z,11.09
2023-01-06T08:23:32.314Z,11.08
2023-01-06T08:26:06.534Z,11.00
2023-01-06T08:28:34.483Z,10.95
2023-01-06T08:31:02.624Z,11.05
2023-01-06T08:33:30.234Z,11.13
2023-01-06T08:36:03.827Z,11.21
2023-01-06T08:38:35.037Z,11.20
2023-01-06T08:41:04.175Z,11.21
2023-01-06T08:43:32.483Z,11.12
2023-01-06T08:46:00.936Z,11.16
2023-01-06T08:48:29.518Z,11.15
2023-01-06T08:50:58.060Z,11.15
2023-01-06T08:53:25.594Z,11.04
2023-01-06T08:55:54.503Z,11.06
2023-01-06T08:58:22.100Z,11.07
2023-01-06T09:00:49.707Z,11.10
2023-01-06T09:03:18.726Z,11.08
2023-01-06T09:05:53.674Z,11.22
2023-01-06T09:08:21.406Z,11.19
2023-01-06T09:10:50.943Z,11.17
2023-01-06T09:13:20.342Z,11.18
2023-01-06T09:15:48.986Z,11.11
2023-01-06T09:18:16.854Z,11.11
2023-01-06T09:20:44.684Z,11.08
2023-01-06T09:23:12.329Z,10.95
2023-01-06T09:25:40.942Z,11.10
2023-01-06T09:28:10.353Z,11.08
2023-01-06T09:30:39.551Z,11.13
2023-01-06T09:33:07.278Z,11.08
2023-01-06T09:35:34.973Z,11.01
2023-01-06T09:38:02.532Z,11.06
2023-01-06T09:40:38.815Z,11.10
2023-01-06T09:43:18.337Z,11.11
2023-01-06T09:45:51.503Z,11.06
2023-01-06T09:48:25.457Z,11.11
2023-01-06T09:50:56.973Z,11.02
2023-01-06T09:53:29.500Z,11.00
2023-01-06T09:56:04.141Z,10.94
2023-01-06T09:58:37.478Z,11.06
2023-01-06T10:01:12.900Z,11.20
2023-01-06T10:03:40.571Z,11.18
2023-01-06T10:06:32.118Z,11.28
2023-01-06T10:09:13.693Z,11.35
2023-01-06T10:11:53.805Z,11.50
2023-01-06T10:14:33.382Z,11.58
2023-01-06T10:17:22.643Z,11.55
2023-01-06T10:20:03.115Z,11.63
2023-01-06T10:22:41.412Z,11.55
2023-01-06T10:25:19.596Z,11.58
2023-01-06T10:27:51.357Z,11.48
2023-01-06T10:30:24.827Z,11.46
2023-01-06T10:32:55.103Z,11.50
2023-01-06T10:35:25.662Z,11.46
2023-01-06T10:37:55.128Z,11.73
2023-01-06T10:40:25.976Z,11.75
2023-01-06T10:42:56.422Z,11.84
2023-01-06T10:45:26.571Z,11.90
2023-01-06T10:47:56.435Z,11.96
2023-01-06T10:50:25.749Z,11.98
2023-01-06T10:52:53.348Z,12.15
2023-01-06T10:55:36.409Z,12.07
2023-01-06T10:58:12.656Z,12.02
2023-01-06T11:00:56.679Z,12.20
2023-01-06T11:03:35.333Z,12.18
2023-01-06T11:06:10.537Z,12.14
2023-01-06T11:08:39.272Z,12.24
2023-01-06T11:11:27.318Z,12.35
2023-01-06T11:13:57.532Z,12.33
2023-01-06T11:16:29.072Z,12.38
2023-01-06T11:19:01.269Z,12.15
2023-01-06T11:21:43.359Z,12.40
2023-01-06T11:24:19.913Z,12.23
2023-01-06T11:26:53.015Z,12.39
2023-01-06T11:29:29.919Z,12.30
2023-01-06T11:32:00.165Z,12.27
2023-01-06T11:34:32.292Z,12.30
2023-01-06T11:37:02.228Z,12.37
2023-01-06T11:39:36.339Z,12.31
2023-01-06T11:42:10.579Z,12.31
2023-01-06T11:44:40.977Z,12.15
2023-01-06T11:47:16.072Z,12.16
2023-01-06T11:49:50.982Z,12.20
2023-01-06T11:52:24.812Z,12.24
2023-01-06T11:55:17.203Z,12.21
2023-01-06T11:57:49.429Z,12.30
2023-01-06T12:00:33.361Z,12.48
2023-01-06T12:03:09.677Z,12.45
2023-01-06T12:05:48.021Z,12.42
2023-01-06T12:08:21.031Z,12.51
2023-01-06T12:10:54.221Z,12.43
2023-01-06T12:13:25.234Z,12.37
2023-01-06T12:16:01.306Z,12.31
2023-01-06T12:18:32.258Z,12.30
2023-01-06T12:21:02.395Z,12.36
2023-01-06T12:23:35.028Z,12.38
2023-01-06T12:26:05.976Z,12.37
2023-01-06T12:28:37.034Z,12.41
2023-01-06T12:31:14.296Z,12.55
2023-01-06T12:33:50.524Z,12.50
2023-01-06T12:36:30.939Z,12.71
2023-01-06T12:39:01.787Z,12.72
2023-01-06T12:41:36.903Z,12.84
2023-01-06T12:44:17.568Z,12.93
2023-01-06T12:46:54.073Z,12.99
2023-01-06T12:49:30.647Z,12.83
2023-01-06T12:52:04.532Z,12.85
2023-01-06T12:54:36.519Z,12.86
2023-01-06T12:57:21.412Z,12.87
2023-01-06T13:00:01.659Z,12.67
2023-01-06T13:02:48.171Z,12.51
2023-01-06T13:05:35.523Z,12.48
2023-01-06T13:08:15.909Z,12.55
2023-01-06T13:10:47.228Z,12.53
2023-01-06T13:13:43.300Z,12.35
2023-01-06T13:16:19.338Z,12.45
2023-01-06T13:19:00.554Z,12.56
2023-01-06T13:21:29.587Z,12.57
2023-01-06T13:24:12.117Z,12.40
2023-01-06T13:26:58.546Z,12.35
2023-01-06T13:29:39.295Z,12.31
2023-01-06T13:32:21.442Z,12.33
2023-01-06T13:35:12.010Z,12.41
2023-01-06T13:37:42.603Z,12.23
2023-01-06T13:40:14.300Z,12.47
2023-01-06T13:42:48.625Z,12.45
2023-01-06T13:45:21.162Z,12.46
2023-01-06T13:47:51.179Z,12.43
2023-01-06T13:50:21.810Z,12.45
2023-01-06T13:52:52.334Z,12.51
2023-01-06T13:55:30.075Z,12.44
2023-01-06T13:57:59.938Z,12.50
2023-01-06T14:00:29.098Z,12.36
2023-01-06T14:03:28.045Z,12.40
2023-01-06T14:05:57.730Z,12.31
2023-01-06T14:08:29.963Z,12.27
2023-01-06T14:11:02.894Z,12.25
2023-01-06T14:13:34.446Z,12.21
2023-01-06T14:16:06.364Z,12.28
2023-01-06T14:18:38.674Z,12.35
2023-01-06T14:21:15.794Z,12.43
2023-01-06T14:23:59.724Z,12.26
2023-01-06T14:26:50.271Z,12.25
2023-01-06T14:29:57.674Z,12.22
2023-01-06T14:33:05.316Z,12.06
2023-01-06T14:35:38.221Z,12.13
2023-01-06T14:38:13.401Z,12.00
2023-01-06T14:40:50.675Z,12.02
2023-01-06T14:43:31.826Z,12.18
2023-01-06T14:46:07.038Z,12.20
2023-01-06T14:48:44.441Z,12.24
2023-01-06T14:51:17.449Z,12.27
2023-01-06T14:53:50.276Z,12.39
2023-01-06T14:56:19.844Z,12.37
2023-01-06T14:58:48.818Z,12.40
2023-01-06T15:01:23.703Z,12.32
2023-01-06T15:03:59.659Z,12.12
2023-01-06T15:06:29.186Z,12.14
2023-01-06T15:09:11.948Z,12.13
2023-01-06T15:11:42.565Z,12.27
2023-01-06T15:17:19.900Z,12.08
2023-01-06T15:19:48.880Z,12.02
2023-01-06T15:22:22.089Z,11.83
2023-01-06T15:24:52.391Z,11.78
2023-01-06T15:27:23.371Z,11.84
2023-01-06T15:29:52.136Z,11.72
2023-01-06T15:32:21.878Z,11.81
2023-01-06T15:34:50.985Z,11.73
2023-01-06T15:37:21.335Z,11.79
2023-01-06T15:39:50.102Z,11.74
2023-01-06T15:42:22.005Z,11.72
2023-01-06T15:44:57.882Z,11.67
2023-01-06T15:47:32.591Z,11.71
2023-01-06T15:50:03.422Z,11.71
2023-01-06T15:52:33.901Z,11.78
2023-01-06T15:55:04.675Z,11.79
2023-01-06T15:57:37.779Z,11.78
2023-01-06T16:00:08.999Z,11.74
2023-01-06T16:02:38.118Z,11.81
2023-01-06T16:05:08.754Z,11.85
2023-01-06T16:07:40.208Z,11.75
2023-01-06T16:10:30.289Z,11.69
2023-01-06T16:13:22.250Z,11.69
2023-01-06T16:15:52.203Z,11.82
2023-01-06T16:18:29.879Z,11.79
2023-01-06T16:21:00.063Z,11.77
2023-01-06T16:23:32.697Z,11.69
2023-01-06T16:26:06.336Z,11.61
2023-01-06T16:28:34.447Z,11.62
2023-01-06T16:31:07.749Z,11.55
2023-01-06T16:33:40.245Z,11.55
2023-01-06T16:36:16.640Z,11.48
2023-01-06T16:38:44.750Z,11.53
2023-01-06T16:41:17.816Z,11.69
2023-01-06T16:43:46.587Z,11.55
2023-01-06T16:46:21.070Z,11.61
2023-01-06T16:48:52.973Z,11.70
2023-01-06T16:51:20.624Z,11.58
2023-01-06T16:53:49.326Z,11.54
2023-01-06T16:56:19.866Z,11.53
2023-01-06T16:58:47.550Z,11.55
2023-01-06T17:01:17.458Z,11.59
2023-01-06T17:03:47.261Z,11.55
2023-01-06T17:06:20.328Z,11.50
2023-01-06T17:08:48.580Z,11.48
2023-01-06T17:11:18.898Z,11.48
2023-01-06T17:13:53.194Z,11.35
2023-01-06T17:16:27.066Z,11.27
2023-01-06T17:18:56.871Z,11.25
2023-01-06T17:21:29.531Z,11.22
2023-01-06T17:23:59.988Z,11.30
2023-01-06T17:26:28.090Z,11.22
2023-01-06T17:28:58.224Z,11.11
2023-01-06T17:31:35.024Z,11.11
2023-01-06T17:34:11.824Z,11.12
2023-01-06T17:36:42.734Z,11.01
2023-01-06T17:39:18.785Z,10.95
2023-01-06T17:41:46.572Z,11.11
2023-01-06T17:44:17.468Z,11.11
2023-01-06T17:46:45.780Z,11.01
2023-01-06T17:49:32.163Z,11.08
2023-01-06T17:52:04.803Z,11.12
2023-01-06T17:54:49.863Z,11.14
2023-01-06T17:57:19.677Z,11.09
2023-01-06T17:59:48.826Z,11.13
2023-01-06T18:02:35.650Z,11.20
2023-01-06T18:05:33.241Z,11.22
2023-01-06T18:08:12.873Z,11.14
2023-01-06T18:10:43.931Z,11.20
2023-01-06T18:13:16.671Z,11.16
2023-01-06T18:15:46.447Z,11.16
2023-01-06T18:18:19.936Z,11.13
2023-01-06T18:20:48.444Z,11.08
2023-01-06T18:23:22.645Z,11.11
2023-01-06T18:25:53.490Z,11.02
2023-01-06T18:28:21.179Z,11.02
2023-01-06T18:30:53.174Z,11.07
2023-01-06T18:33:21.513Z,11.14
2023-01-06T18:35:52.639Z,11.17
2023-01-06T18:38:21.753Z,11.22
2023-01-06T18:40:49.615Z,11.34
2023-01-06T18:43:26.100Z,11.29
2023-01-06T18:45:56.602Z,11.33
2023-01-06T18:48:30.661Z,11.25
2023-01-06T18:51:00.396Z,11.33
2023-01-06T18:53:31.261Z,11.37
2023-01-06T18:56:00.552Z,11.23
2023-01-06T18:58:41.318Z,11.21
2023-01-06T19:01:20.558Z,11.20
2023-01-06T19:03:59.280Z,11.11
2023-01-06T19:06:35.694Z,11.04
2023-01-06T19:09:23.280Z,10.96
2023-01-06T19:12:02.314Z,10.94
2023-01-06T19:14:33.669Z,10.86
2023-01-06T19:17:01.285Z,10.88
2023-01-06T19:19:34.819Z,10.89
2023-01-06T19:22:10.684Z,10.88
2023-01-06T19:24:53.129Z,11.00
2023-01-06T19:27:42.039Z,10.89
2023-01-06T19:30:38.376Z,11.02
2023-01-06T19:33:36.666Z,10.96
2023-01-06T19:36:38.360Z,10.99
2023-01-06T19:39:19.673Z,11.02
2023-01-06T19:41:51.451Z,11.09
2023-01-06T19:44:22.552Z,11.09
2023-01-06T19:46:50.279Z,10.97
2023-01-06T19:49:20.161Z,11.01
2023-01-06T19:51:49.957Z,10.97
2023-01-06T19:54:24.969Z,10.96
2023-01-06T19:56:54.999Z,10.96
2023-01-06T19:59:26.495Z,10.93
2023-01-06T20:01:59.957Z,10.92
2023-01-06T20:04:28.687Z,10.92
2023-01-06T20:06:56.260Z,10.91
2023-01-06T20:09:23.814Z,10.99
2023-01-06T20:11:52.376Z,11.00
2023-01-06T20:14:24.497Z,11.01
2023-01-06T20:16:52.255Z,11.02
2023-01-06T20:19:21.401Z,11.05
2023-01-06T20:21:49.010Z,10.98
2023-01-06T20:24:16.719Z,11.02
2023-01-06T20:26:45.347Z,10.96
2023-01-06T20:29:12.904Z,11.10
2023-01-06T20:31:41.897Z,11.24
2023-01-06T20:34:09.600Z,11.24
2023-01-06T20:36:37.157Z,11.12
2023-01-06T20:39:04.820Z,11.00
2023-01-06T20:41:32.404Z,11.14
2023-01-06T20:44:00.981Z,11.15
2023-01-06T20:46:28.583Z,11.02
2023-01-06T20:48:57.512Z,10.92
2023-01-06T20:51:26.082Z,10.87
2023-01-06T20:53:53.619Z,10.89
2023-01-06T20:56:21.439Z,10.83
2023-01-06T20:58:49.041Z,10.87
2023-01-06T21:01:16.698Z,10.98
2023-01-06T21:03:44.384Z,11.04
2023-01-06T21:06:13.280Z,11.04
2023-01-06T21:08:40.778Z,11.07
2023-01-06T21:11:08.333Z,11.02
2023-01-06T21:13:35.833Z,10.96
2023-01-06T21:16:03.454Z,11.07
2023-01-06T21:18:31.087Z,10.97
2023-01-06T21:20:58.775Z,10.94
2023-01-06T21:23:27.789Z,11.05
2023-01-06T21:25:55.400Z,10.94
2023-01-06T21:28:22.976Z,10.83
2023-01-06T21:30:50.590Z,10.69
2023-01-06T21:33:20.424Z,10.76
2023-01-06T21:35:48.987Z,10.57
2023-01-06T21:38:17.022Z,10.64
2023-01-06T21:40:46.002Z,10.57
2023-01-06T21:43:12.672Z,10.52
2023-01-06T21:45:41.596Z,10.39
2023-01-06T21:48:09.798Z,10.37
2023-01-06T21:50:40.212Z,10.50
2023-01-06T21:53:08.411Z,10.55
2023-01-06T21:55:40.075Z,10.57
2023-01-06T21:58:09.076Z,10.58
2023-01-06T22:00:36.651Z,10.61
2023-01-06T22:03:05.581Z,10.65
2023-01-06T22:05:33.473Z,10.61
2023-01-06T22:08:01.308Z,10.64
2023-01-06T22:10:29.025Z,10.60
2023-01-06T22:12:59.100Z,10.66
2023-01-06T22:15:29.406Z,10.73
2023-01-06T22:17:59.442Z,10.75
2023-01-06T22:20:27.969Z,10.73
2023-01-06T22:22:55.803Z,10.68
2023-01-06T22:25:23.444Z,10.69
2023-01-06T22:27:50.999Z,10.62
2023-01-06T22:30:18.748Z,10.58
2023-01-06T22:32:48.993Z,10.77
2023-01-06T22:35:17.687Z,10.64
2023-01-06T22:37:45.561Z,10.56
2023-01-06T22:40:14.522Z,10.61
2023-01-06T22:42:42.196Z,10.51
2023-01-06T22:45:10.506Z,10.56
2023-01-06T22:47:38.196Z,10.74
2023-01-06T22:50:08.568Z,10.64
2023-01-06T22:52:36.126Z,10.64
2023-01-06T22:55:04.177Z,10.76
2023-01-06T22:57:31.717Z,10.68
2023-01-06T23:00:00.130Z,10.70
2023-01-06T23:02:28.008Z,10.67
2023-01-06T23:04:55.759Z,10.68
2023-01-06T23:07:24.860Z,10.63
2023-01-06T23:09:54.494Z,10.77
2023-01-06T23:12:22.217Z,10.70
2023-01-06T23:14:50.192Z,10.65
2023-01-06T23:17:18.851Z,10.81
2023-01-06T23:19:49.589Z,10.70
2023-01-06T23:22:17.774Z,10.68
2023-01-06T23:24:47.707Z,10.71
2023-01-06T23:27:16.535Z,10.80
2023-01-06T23:29:46.229Z,10.78
2023-01-06T23:32:14.060Z,10.78
2023-01-06T23:34:41.907Z,10.69
2023-01-06T23:37:09.867Z,10.72
2023-01-06T23:39:40.411Z,10.76
2023-01-06T23:42:09.804Z,10.80
2023-01-06T23:44:37.437Z,10.76
2023-01-06T23:47:09.102Z,10.74
2023-01-06T23:49:36.697Z,10.81
2023-01-06T23:52:04.667Z,10.77
2023-01-06T23:54:33.547Z,10.82
2023-01-06T23:57:01.096Z,10.78
2023-01-06T23:59:30.230Z,10.77
